• Join FlightAware (Why Join?)
  • Login
  • US Flag 
06:37AM EDT


 

Airport Tracker/Info


-or-


 

Live Flight TrackerFlight Track Log ✈ DAL109 ✈ 18-Nov-2013 ✈ KATL - MMGL / GDL

Flight Track Log - Related Links

Times and Time Zones

All times are in EST time to prevent confusion due to time zone crossing. See the DAL109 flight status page for this flight to view local times or setup timezone preferences in your user account.

Time Position Orientation Groundspeed Altitude Reporting Facility
EST Latitude Longitude Course Direction KTS MPH feet Rate Location/Type
06:39PM 33.6500 -84.4667 246° West 177 204 2,700  Level Atlanta TRACON
06:40PM 33.6667 -84.5500 284° West 241 277 4,200 1,980 Climbing Atlanta TRACON
06:41PM 33.6833 -84.6333 284° West 260 299 6,700 2,040 Climbing Atlanta TRACON
06:42PM 33.6536 -84.8108 234° Southwest  Level FlightAware Approximate
06:43PM 33.6043 -84.9390 246° West  Level FlightAware Approximate
06:43PM 33.6811 -84.8128 269° West 277 319 10,800  Level Atlanta Center
06:44PM 33.5560 -85.0678 246° West  Level FlightAware Approximate
06:44PM 33.6367 -84.9194 243° Southwest 322 371 12,000  Level Atlanta Center
06:45PM 33.5076 -85.1965 246° West  Level FlightAware Approximate
06:45PM 33.5919 -85.0289 244° Southwest 358 412 14,300  Level Atlanta Center
06:46PM 33.5700 -85.1483 258° West 370 426 16,300 1,800 Climbing Atlanta Center
06:47PM 33.5481 -85.2700 258° West 378 435 18,000 1,680 Climbing Atlanta Center
06:48PM 33.5236 -85.4044 258° West 378 435 19,700 1,500 Climbing Atlanta Center
06:49PM 33.5014 -85.5286 258° West 378 435 21,100 1,260 Climbing Atlanta Center
06:50PM 33.4769 -85.6528 257° West 384 442 22,300 1,200 Climbing Atlanta Center
06:51PM 33.4542 -85.7842 258° West 396 456 23,500 960 Climbing Atlanta Center
06:52PM 33.4317 -85.8983 257° West 396 456 24,300 840 Climbing Atlanta Center
06:53PM 33.4067 -86.0319 257° West 403 464 25,200 960 Climbing Atlanta Center
06:54PM 33.3833 -86.1683 258° West 415 478 26,300 1,020 Climbing Atlanta Center
06:55PM 33.3561 -86.3019 256° West 415 478 27,300 1,020 Climbing Atlanta Center
06:56PM 33.3239 -86.4503 255° West 415 478 28,400 900 Climbing Atlanta Center
06:57PM 33.3053 -86.5567 258° West 415 478 29,200 1,020 Climbing Atlanta Center
06:58PM 33.2792 -86.7075 258° West 420 483 30,500 1,020 Climbing Atlanta Center
06:59PM 33.2553 -86.8383 258° West 412 474 31,300 720 Climbing Atlanta Center
07:00PM 33.2231 -86.9639 253° West 407 468 32,000 300 Climbing Atlanta Center
07:01PM 33.1614 -87.0958 241° Southwest 407 468 32,000  Level Atlanta Center
07:02PM 33.1083 -87.2156 242° Southwest 412 474 32,000  Level Atlanta Center
07:03PM 33.0531 -87.3325 241° Southwest 407 468 32,000  Level Atlanta Center
07:04PM 33.0042 -87.4447 243° Southwest 407 468 32,000  Level Atlanta Center
07:06PM 32.9044 -87.6661 242° Southwest 409 471 32,000  Level Memphis Center
07:07PM 32.8508 -87.7850 242° Southwest 409 471 32,000  Level Memphis Center
07:08PM 32.7872 -87.9222 241° Southwest 409 471 32,000  Level Memphis Center
07:09PM 32.7339 -88.0403 242° Southwest 410 472 32,000  Level Memphis Center
07:11PM 32.6800 -88.1575 241° Southwest 408 470 32,000  Level Memphis Center
07:12PM 32.6258 -88.2747 241° Southwest 408 470 32,000  Level Memphis Center
07:13PM 32.5708 -88.3914 241° Southwest 408 470 32,000  Level Memphis Center
07:14PM 32.5172 -88.5075 241° Southwest 405 466 32,000  Level Memphis Center
07:15PM 32.4506 -88.6489 241° Southwest 409 471 32,100 360 Climbing Memphis Center
07:16PM 32.3961 -88.7653 241° Southwest 408 470 32,800 600 Climbing Memphis Center
07:17PM 32.3286 -88.8731 233° Southwest 410 472 33,400 540 Climbing Memphis Center
07:18PM 32.2522 -88.9764 229° Southwest 416 479 34,000 240 Climbing Memphis Center
07:19PM 32.1786 -89.0792 230° Southwest 413 475 34,000  Level Memphis Center
07:20PM 32.1028 -89.1808 229° Southwest 414 476 34,000  Level Memphis Center
07:21PM 32.0133 -89.3050 230° Southwest 415 478 34,000  Level Memphis Center
07:22PM 31.9383 -89.4069 229° Southwest 414 476 34,000  Level Memphis Center
07:23PM 31.8633 -89.5089 229° Southwest 414 476 34,000  Level Memphis Center
07:24PM 31.7883 -89.6106 229° Southwest 414 476 34,000  Level Memphis Center
07:25PM 31.7136 -89.7108 229° Southwest 412 474 34,000  Level Memphis Center
07:26PM 31.6272 -89.8286 229° Southwest 413 475 34,000 -60 Level Houston Center
07:27PM 31.5519 -89.9289 229° Southwest 412 474 33,900 -60 Descending Houston Center
07:28PM 31.4775 -90.0286 229° Southwest 410 472 33,900  Level Houston Center
07:29PM 31.3869 -90.1497 229° Southwest 412 474 34,000  Climbing Houston Center
07:30PM 31.3142 -90.2511 230° Southwest 411 473 34,000  Level Houston Center
07:31PM 31.2611 -90.3675 242° Southwest 409 471 34,000 -60 Level Houston Center
07:32PM 31.2147 -90.4867 246° West 406 467 33,900  Descending Houston Center
07:33PM 31.1683 -90.6058 246° West 405 466 34,000  Climbing Houston Center
07:34PM 31.1208 -90.7258 245° Southwest 408 470 34,000  Level Houston Center
07:35PM 31.0625 -90.8686 245° Southwest 408 470 34,000  Level Houston Center
07:36PM 31.0158 -90.9881 246° West 407 468 34,000 -60 Level Houston Center
07:37PM 30.9683 -91.1069 245° Southwest 406 467 33,900  Descending Houston Center
07:38PM 30.9128 -91.2406 244° Southwest 408 470 34,000  Climbing Houston Center
07:39PM 30.8658 -91.3600 245° Southwest 405 466 34,000  Level Houston Center
07:41PM 30.8172 -91.4783 244° Southwest 406 467 34,000  Level Houston Center
07:42PM 30.7692 -91.5978 245° Southwest 407 468 34,000  Level Houston Center
07:43PM 30.7203 -91.7169 245° Southwest 408 470 34,000  Level Houston Center
07:44PM 30.6711 -91.8364 244° Southwest 409 471 34,000  Level Houston Center
07:45PM 30.6131 -91.9783 245° Southwest 406 467 34,000  Level Houston Center
07:46PM 30.5633 -92.0975 244° Southwest 409 471 34,000  Level Houston Center
07:47PM 30.5139 -92.2164 244° Southwest 407 468 34,000  Level Houston Center
07:48PM 30.4631 -92.3411 245° Southwest 408 470 34,000 -60 Level Houston Center
07:49PM 30.4128 -92.4608 244° Southwest 411 473 33,900 -60 Descending Houston Center
07:50PM 30.3631 -92.5803 244° Southwest 412 474 33,900  Level Houston Center
07:51PM 30.3133 -92.6989 244° Southwest 409 471 33,900  Level Houston Center
07:52PM 30.2625 -92.8194 244° Southwest 415 478 34,000  Climbing Houston Center
07:53PM 30.2008 -92.9644 244° Southwest 417 480 34,000  Level Houston Center
07:54PM 30.1494 -93.0867 244° Southwest 419 482 34,000  Level Houston Center
07:55PM 30.0986 -93.2086 244° Southwest 418 481 34,000 -60 Level Houston Center
07:56PM 30.0478 -93.3308 244° Southwest 420 483 33,900 -60 Descending Houston Center
07:57PM 29.9969 -93.4542 245° Southwest 421 484 33,900  Level Houston Center
07:58PM 29.9461 -93.5772 245° Southwest 422 486 34,000  Climbing Houston Center
07:59PM 29.8942 -93.7003 244° Southwest 424 488 34,000  Level Houston Center
08:00PM 29.8425 -93.8225 244° Southwest 423 487 34,000  Level Houston Center
08:01PM 29.7814 -93.9703 245° Southwest 426 490 34,000  Level Houston Center
08:02PM 29.7303 -94.0917 244° Southwest 424 488 34,000  Level Houston Center
08:03PM 29.6764 -94.2172 244° Southwest 423 487 34,000  Level Houston Center
08:04PM 29.6244 -94.3386 244° Southwest 423 487 34,000  Level Houston Center
08:05PM 29.5722 -94.4603 244° Southwest 424 488 34,000  Level Houston Center
08:06PM 29.5197 -94.5828 244° Southwest 426 490 34,000  Level Houston Center
08:07PM 29.4669 -94.7050 244° Southwest 426 490 34,000  Level Houston Center
08:08PM 29.4147 -94.8286 244° Southwest 427 491 34,000  Level Houston Center
08:09PM 29.3497 -94.9758 243° Southwest 428 493 34,000  Level Houston Center
08:11PM 29.2964 -95.0989 244° Southwest 426 490 34,000  Level Houston Center
08:12PM 29.2433 -95.2214 244° Southwest 427 491 34,000  Level Houston Center
08:13PM 29.1903 -95.3425 243° Southwest 425 489 34,000  Level Houston Center
08:14PM 29.1336 -95.4617 241° Southwest 426 490 34,000  Level Houston Center
08:15PM 29.0611 -95.5692 232° Southwest 426 490 34,000  Level Houston Center
08:16PM 28.9881 -95.6758 232° Southwest 426 490 34,000  Level Houston Center
08:17PM 28.9017 -95.8042 232° Southwest 426 490 34,000  Level Houston Center
08:18PM 28.8289 -95.9108 232° Southwest 426 490 34,000  Level Houston Center
08:19PM 28.7575 -96.0183 233° Southwest 425 489 34,000 -60 Level Houston Center
08:20PM 28.6847 -96.1236 232° Southwest 423 487 33,900 -60 Descending Houston Center
08:21PM 28.6122 -96.2297 232° Southwest 423 487 33,900  Level Houston Center
08:22PM 28.5383 -96.3369 232° Southwest 427 491 34,000  Climbing Houston Center
08:23PM 28.4647 -96.4433 232° Southwest 428 493 33,900  Descending Houston Center
08:24PM 28.3769 -96.5725 232° Southwest 430 495 34,000  Climbing Houston Center
08:25PM 28.3028 -96.6789 232° Southwest 429 494 34,000  Level Houston Center
08:26PM 28.2244 -96.7903 231° Southwest 428 493 34,000  Level Houston Center
08:27PM 28.1497 -96.8983 232° Southwest 427 491 34,000  Level Houston Center
08:28PM 28.0747 -97.0064 232° Southwest 428 493 34,000  Level Houston Center
08:29PM 27.9992 -97.1142 232° Southwest 429 494 34,000  Level Houston Center
08:30PM 27.9181 -97.2300 232° Southwest 427 491 34,000  Level Houston Center
08:31PM 27.8433 -97.3369 232° Southwest 427 491 34,000  Level Houston Center
08:32PM 27.7681 -97.4433 231° Southwest 426 490 34,000  Level Houston Center
08:33PM 27.6933 -97.5500 232° Southwest 425 489 34,000  Level Houston Center
08:34PM 27.6183 -97.6564 232° Southwest 425 489 34,000  Level Houston Center
08:35PM 27.5506 -97.7528 232° Southwest 422 486 34,000  Level Houston Center
08:36PM 27.4739 -97.8581 231° Southwest 432 497 34,000  Level Houston Center
08:37PM 27.3867 -97.9825 232° Southwest 430 495 34,000  Level Houston Center
08:38PM 27.3122 -98.0867 231° Southwest 422 486 34,000  Level Houston Center
08:39PM 27.2369 -98.1908 231° Southwest 422 486 34,000  Level Houston Center
08:40PM 27.1617 -98.2964 231° Southwest 423 487 34,000 -60 Level Houston Center
08:41PM 27.0881 -98.3978 231° Southwest 424 488 33,900  Descending Houston Center
08:43PM 27.0136 -98.5017 231° Southwest 425 489 34,000  Climbing Houston Center
08:44PM 26.9381 -98.6061 231° Southwest 428 493 34,000  Level Houston Center
08:45PM 26.8633 -98.7089 231° Southwest 425 489 34,000 -60 Level Houston Center
08:46PM 26.7881 -98.8122 231° Southwest 426 490 33,900 -60 Descending Houston Center
08:47PM 26.6986 -98.9356 231° Southwest 425 489 33,900  Level Houston Center
08:48PM 26.6231 -99.0375 230° Southwest 424 488 34,000  Climbing Houston Center
08:49PM 26.5489 -99.1400 231° Southwest 424 488 34,000  Level Houston Center
08:51PM 26.4150 -99.3060 228° Southwest  Level FlightAware Approximate
08:58PM 25.8771 -99.9657 228° Southwest  Level FlightAware Approximate
08:59PM 25.8000 -100.0595 228° Southwest  Level FlightAware Approximate
09:00PM 25.7151 -100.1436 217° Southwest  Level FlightAware Approximate
09:01PM 25.6241 -100.2203 217° Southwest  Level FlightAware Approximate
09:02PM 25.5330 -100.2969 217° Southwest  Level FlightAware Approximate
09:03PM 25.4420 -100.3735 218° Southwest  Level FlightAware Approximate
09:04PM 25.3514 -100.4506 218° Southwest  Level FlightAware Approximate
09:05PM 25.2607 -100.5276 218° Southwest  Level FlightAware Approximate
09:06PM 25.1701 -100.6045 218° Southwest  Level FlightAware Approximate
09:07PM 25.0793 -100.6812 217° Southwest  Level FlightAware Approximate
09:08PM 24.9886 -100.7579 217° Southwest  Level FlightAware Approximate
09:09PM 24.8978 -100.8344 217° Southwest  Level FlightAware Approximate
09:10PM 24.8069 -100.9109 217° Southwest  Level FlightAware Approximate
09:11PM 24.7173 -100.9889 218° Southwest  Level FlightAware Approximate
09:12PM 24.6277 -101.0670 218° Southwest  Level FlightAware Approximate
09:13PM 24.5381 -101.1450 218° Southwest  Level FlightAware Approximate
09:14PM 24.4484 -101.2229 218° Southwest  Level FlightAware Approximate
09:15PM 24.3587 -101.3007 218° Southwest  Level FlightAware Approximate
09:16PM 24.2690 -101.3783 218° Southwest  Level FlightAware Approximate
09:17PM 24.1792 -101.4559 218° Southwest  Level FlightAware Approximate
09:18PM 24.0733 -101.5005 198° South  Level FlightAware Approximate
09:19PM 23.9648 -101.5398 198° South  Level FlightAware Approximate
09:20PM 23.8537 -101.5799 198° South  Level FlightAware Approximate
09:21PM 23.7426 -101.6200 198° South  Level FlightAware Approximate
09:22PM 23.6314 -101.6600 198° South  Level FlightAware Approximate
09:23PM 23.5200 -101.6989 197° South  Level FlightAware Approximate
09:24PM 23.4081 -101.7362 197° South  Level FlightAware Approximate
09:25PM 23.2963 -101.7741 197° South  Level FlightAware Approximate
09:26PM 23.1847 -101.8123 197° South  Level FlightAware Approximate
09:27PM 23.0731 -101.8504 197° South  Level FlightAware Approximate
09:28PM 22.9614 -101.8885 197° South  Level FlightAware Approximate
09:29PM 22.8498 -101.9265 197° South  Level FlightAware Approximate
09:30PM 22.7381 -101.9645 197° South  Level FlightAware Approximate
09:31PM 22.6265 -102.0024 198° South  Level FlightAware Approximate
09:32PM 22.5152 -102.0417 198° South  Level FlightAware Approximate
09:33PM 22.4040 -102.0810 198° South  Level FlightAware Approximate
09:34PM 22.2913 -102.1147 193° South  Level FlightAware Approximate
09:35PM 22.1793 -102.1514 197° South  Level FlightAware Approximate
09:36PM 22.0675 -102.1886 197° South  Level FlightAware Approximate
09:37PM 21.9557 -102.2259 197° South  Level FlightAware Approximate
09:38PM 21.8445 -102.2651 198° South  Level FlightAware Approximate
09:39PM 21.7334 -102.3047 198° South  Level FlightAware Approximate
09:40PM 21.6353 -102.3706 218° Southwest  Level FlightAware Approximate
09:41PM 21.5428 -102.4477 218° Southwest  Level FlightAware Approximate
09:42PM 21.4501 -102.5243 217° Southwest  Level FlightAware Approximate
09:43PM 21.3570 -102.6005 217° Southwest  Level FlightAware Approximate
09:44PM 21.2640 -102.6767 217° Southwest  Level FlightAware Approximate
09:45PM 21.1709 -102.7527 217° Southwest  Level FlightAware Approximate
09:46PM 21.0823 -102.8344 223° Southwest  Level FlightAware Approximate
09:47PM 20.9941 -102.9165 214° Southwest  Level FlightAware Approximate
09:48PM 20.8973 -102.9869 214° Southwest  Level FlightAware Approximate
09:49PM 20.8008 -103.0577 215° Southwest  Level FlightAware Approximate
09:50PM 20.7117 -103.1383 223° Southwest  Level FlightAware Approximate
09:51PM 20.6173 -103.2120 215° Southwest  Level FlightAware Approximate
09:52PM 20.5264 -103.2903 223° Southwest  Level FlightAware Approximate
09:53PM 20.5167 -103.3167 270° West  Level FlightAware Approximate
09:54PM 20.5218 -103.3112 270° West  Level Estimated
09:55PM 20.5218 -103.3112 270° West  Level Estimated
09:56PM 20.5218 -103.3112 270° West  Level Estimated
09:57PM 20.5218 -103.3112 270° West  Level Estimated
09:58PM 20.5218 -103.3112 270° West  Level Estimated
09:59PM 20.5218 -103.3112 270° West  Level Estimated
10:00PM 20.5218 -103.3112 270° West  Level Estimated